Time;durP1;ratioP1;P1;durP2;ratioP2;P2;SDS_P1;SDS_P2;PMS_P1;PMS_P2;Temp;Humidity;BMP_temperature;BMP_pressure;BME280_temperature;BME280_humidity;BME280_pressure;Samples;Min_cycle;Max_cycle;Signal;HPM_P1;HPM_P2
2022/05/10 00:02:10;;;;;;;15.50;5.95;;;;;;;;;;5001691;28;20041;-63
2022/05/10 00:04:36;;;;;;;15.13;6.35;;;;;;;;;;5003051;28;20029;-65
2022/05/10 00:07:02;;;;;;;17.60;7.32;;;;;;;;;;5001840;28;20032;-65
2022/05/10 00:09:29;;;;;;;11.90;5.82;;;;;;;;;;5000230;28;20866;-63
2022/05/10 00:11:55;;;;;;;15.15;6.07;;;;;;;;;;5000418;28;20041;-65
2022/05/10 00:34:43;;;;;;;16.05;6.05;;;;;;;;;;5002267;28;20083;-66
2022/05/10 00:37:10;;;;;;;12.65;5.15;;;;;;;;;;4997071;28;20052;-66
2022/05/10 00:39:35;;;;;;;10.75;5.30;;;;;;;;;;5001784;28;20080;-65
2022/05/10 00:42:27;;;;;;;14.65;4.90;;;;;;;;;;4998999;28;20124;-65
2022/05/10 00:45:07;;;;;;;12.75;5.45;;;;;;;;;;4996977;28;20045;-67
2022/05/10 00:47:41;;;;;;;16.98;6.03;;;;;;;;;;5000682;28;20071;-65
2022/05/10 00:50:06;;;;;;;15.02;5.63;;;;;;;;;;4999404;28;20052;-63
2022/05/10 00:53:01;;;;;;;9.82;5.18;;;;;;;;;;4997956;28;20183;-64
2022/05/10 00:55:28;;;;;;;13.18;5.57;;;;;;;;;;4990265;28;20044;-62
2022/05/10 00:58:03;;;;;;;17.27;6.60;;;;;;;;;;4997168;28;20835;-62
2022/05/10 01:00:31;;;;;;;12.70;6.22;;;;;;;;;;4996452;28;20977;-62
2022/05/10 01:02:57;;;;;;;17.80;7.18;;;;;;;;;;4996685;28;20035;-64
2022/05/10 01:05:23;;;;;;;23.48;9.85;;;;;;;;;;5006137;28;20060;-65
2022/05/10 01:08:08;;;;;;;21.60;8.73;;;;;;;;;;5001175;28;20949;-64
2022/05/10 01:10:52;;;;;;;23.02;9.80;;;;;;;;;;5000263;28;20040;-67
2022/05/10 01:13:38;;;;;;;24.80;9.93;;;;;;;;;;4999340;28;20858;-65
2022/05/10 01:16:03;;;;;;;22.05;8.90;;;;;;;;;;5000058;28;20956;-65
2022/05/10 01:18:29;;;;;;;20.38;8.40;;;;;;;;;;4999499;28;20083;-65
2022/05/10 01:20:58;;;;;;;20.88;8.45;;;;;;;;;;4999299;28;20072;-65
2022/05/10 01:23:42;;;;;;;21.35;8.63;;;;;;;;;;4998504;28;20030;-65
2022/05/10 01:26:13;;;;;;;20.63;8.75;;;;;;;;;;4996330;28;20705;-65
2022/05/10 01:28:43;;;;;;;26.67;8.47;;;;;;;;;;4998762;28;20034;-65
2022/05/10 01:31:13;;;;;;;26.17;8.32;;;;;;;;;;4999437;28;20040;-65
2022/05/10 01:33:42;;;;;;;25.33;8.00;;;;;;;;;;4998815;28;20033;-63
2022/05/10 01:36:37;;;;;;;25.13;7.65;;;;;;;;;;4998153;28;20136;-63
2022/05/10 01:39:21;;;;;;;18.67;7.32;;;;;;;;;;4989670;28;20086;-65
2022/05/10 01:41:49;;;;;;;16.00;6.45;;;;;;;;;;4996090;28;20033;-65
2022/05/10 01:44:23;;;;;;;14.93;6.72;;;;;;;;;;4993280;28;20207;-66
2022/05/10 01:46:54;;;;;;;18.27;8.25;;;;;;;;;;5013631;28;20087;-65
2022/05/10 01:49:42;;;;;;;16.92;7.85;;;;;;;;;;4998696;28;20040;-65
2022/05/10 01:52:24;;;;;;;22.08;8.65;;;;;;;;;;4990478;28;20030;-66
2022/05/10 01:54:55;;;;;;;16.10;7.80;;;;;;;;;;4998539;28;20788;-64
2022/05/10 01:57:21;;;;;;;16.42;7.38;;;;;;;;;;4998425;28;20150;-65
2022/05/10 01:59:50;;;;;;;18.42;7.55;;;;;;;;;;4999333;28;20037;-63
2022/05/10 02:02:17;;;;;;;20.33;9.23;;;;;;;;;;4998348;28;20040;-64
2022/05/10 02:04:48;;;;;;;18.77;8.40;;;;;;;;;;5011653;28;20041;-65
2022/05/10 02:07:16;;;;;;;14.60;7.68;;;;;;;;;;4996564;28;20076;-62
2022/05/10 02:10:04;;;;;;;17.08;7.07;;;;;;;;;;4998641;28;20084;-63
2022/05/10 02:12:41;;;;;;;15.30;7.38;;;;;;;;;;4991227;28;20040;-65
2022/05/10 02:15:09;;;;;;;22.73;8.85;;;;;;;;;;4997696;28;20033;-64
2022/05/10 02:17:49;;;;;;;25.63;10.55;;;;;;;;;;4998553;28;20037;-63
2022/05/10 02:20:14;;;;;;;18.30;8.35;;;;;;;;;;4997407;28;20044;-62
2022/05/10 02:22:42;;;;;;;17.80;7.45;;;;;;;;;;4996206;28;20056;-63
2022/05/10 02:25:07;;;;;;;17.63;7.15;;;;;;;;;;4997677;28;20037;-62
2022/05/10 02:27:36;;;;;;;27.63;9.32;;;;;;;;;;4998134;28;20112;-62
2022/05/10 02:30:06;;;;;;;22.52;9.20;;;;;;;;;;4998509;28;20033;-64
2022/05/10 02:35:21;;;;;;;17.80;7.60;;;;;;;;;;4997564;28;20145;-63
2022/05/10 02:37:47;;;;;;;18.85;7.70;;;;;;;;;;4997596;28;21139;-63
2022/05/10 02:40:13;;;;;;;18.05;7.93;;;;;;;;;;4997512;28;20190;-63
2022/05/10 02:42:38;;;;;;;18.23;7.00;;;;;;;;;;4996763;28;20100;-62
2022/05/10 02:45:07;;;;;;;16.88;7.25;;;;;;;;;;4998984;28;20037;-65
2022/05/10 02:47:45;;;;;;;23.38;8.20;;;;;;;;;;4996296;28;22350;-63
2022/05/10 02:50:19;;;;;;;26.90;10.43;;;;;;;;;;4997845;28;20067;-65
2022/05/10 02:52:44;;;;;;;21.98;9.07;;;;;;;;;;4996189;28;20041;-66
2022/05/10 02:55:14;;;;;;;26.17;8.98;;;;;;;;;;4998111;28;20096;-65
2022/05/10 02:57:39;;;;;;;21.38;8.80;;;;;;;;;;4997161;28;20045;-66
2022/05/10 03:00:06;;;;;;;21.52;8.93;;;;;;;;;;4998910;28;20075;-65
2022/05/10 03:02:34;;;;;;;22.98;8.93;;;;;;;;;;4978191;28;20734;-63
2022/05/10 03:05:00;;;;;;;24.88;9.68;;;;;;;;;;4991109;28;20125;-63
2022/05/10 03:07:27;;;;;;;25.55;10.25;;;;;;;;;;4998190;28;20033;-62
2022/05/10 03:09:55;;;;;;;28.95;9.52;;;;;;;;;;4997788;28;20033;-65
2022/05/10 03:12:20;;;;;;;30.10;11.02;;;;;;;;;;4980450;28;20040;-62
2022/05/10 03:14:46;;;;;;;28.77;11.63;;;;;;;;;;4997964;28;21063;-63
2022/05/10 03:17:12;;;;;;;39.92;13.13;;;;;;;;;;4994686;28;20035;-62
2022/05/10 03:19:38;;;;;;;31.50;11.75;;;;;;;;;;4992976;28;20320;-62
2022/05/10 03:22:06;;;;;;;41.75;14.32;;;;;;;;;;4996978;28;20033;-63
2022/05/10 03:24:32;;;;;;;27.58;10.90;;;;;;;;;;4993903;28;20203;-63
2022/05/10 03:26:58;;;;;;;30.75;10.23;;;;;;;;;;5000737;28;20063;-64
2022/05/10 03:29:25;;;;;;;28.70;11.93;;;;;;;;;;4999585;28;20065;-63
2022/05/10 03:31:50;;;;;;;33.40;12.93;;;;;;;;;;5001248;28;20037;-62
2022/05/10 03:37:00;;;;;;;20.77;9.85;;;;;;;;;;5001408;28;20497;-64
2022/05/10 03:39:25;;;;;;;29.13;12.40;;;;;;;;;;5001660;28;20168;-63
2022/05/10 03:41:51;;;;;;;33.45;12.60;;;;;;;;;;5000446;28;20084;-63
2022/05/10 03:44:16;;;;;;;25.88;10.82;;;;;;;;;;5001275;28;20033;-62
2022/05/10 03:46:43;;;;;;;24.77;11.02;;;;;;;;;;4998259;28;20516;-63
2022/05/10 03:49:08;;;;;;;30.38;10.95;;;;;;;;;;5001501;28;21120;-65
2022/05/10 03:51:34;;;;;;;38.13;11.75;;;;;;;;;;4999915;28;20049;-65
2022/05/10 03:53:59;;;;;;;25.67;10.68;;;;;;;;;;5000346;28;20033;-65
2022/05/10 03:56:28;;;;;;;29.98;11.25;;;;;;;;;;5001091;28;20037;-65
2022/05/10 03:58:53;;;;;;;31.00;12.50;;;;;;;;;;5000191;28;20156;-65
2022/05/10 04:01:19;;;;;;;33.75;12.68;;;;;;;;;;5001236;28;20045;-63
2022/05/10 04:03:45;;;;;;;37.00;13.25;;;;;;;;;;4999901;28;20129;-63
2022/05/10 04:06:11;;;;;;;32.80;11.80;;;;;;;;;;5003022;28;20068;-63
2022/05/10 04:08:36;;;;;;;41.92;12.63;;;;;;;;;;5000747;28;20111;-63
2022/05/10 04:11:03;;;;;;;43.42;14.25;;;;;;;;;;5000407;28;20148;-64
2022/05/10 04:13:29;;;;;;;52.42;15.98;;;;;;;;;;4998116;28;20038;-63
2022/05/10 04:15:54;;;;;;;44.10;14.75;;;;;;;;;;5009616;28;20908;-63
2022/05/10 04:18:19;;;;;;;41.90;13.52;;;;;;;;;;5000261;28;20052;-63
2022/05/10 04:20:44;;;;;;;46.17;13.98;;;;;;;;;;4998919;28;20041;-63
2022/05/10 04:23:10;;;;;;;40.20;13.57;;;;;;;;;;4998568;28;20043;-63
2022/05/10 04:25:36;;;;;;;39.28;12.95;;;;;;;;;;4998566;28;20048;-65
2022/05/10 04:28:04;;;;;;;41.78;14.00;;;;;;;;;;5001745;28;20033;-63
2022/05/10 04:30:29;;;;;;;24.38;10.20;;;;;;;;;;4999756;28;20125;-65
2022/05/10 04:32:55;;;;;;;25.38;10.25;;;;;;;;;;4999900;28;20037;-65
2022/05/10 04:35:20;;;;;;;25.50;9.48;;;;;;;;;;4997285;28;20034;-65
2022/05/10 04:37:46;;;;;;;27.15;10.60;;;;;;;;;;5000118;28;20121;-65
2022/05/10 04:42:55;;;;;;;35.25;10.75;;;;;;;;;;5000290;28;20033;-65
2022/05/10 04:45:21;;;;;;;26.25;9.82;;;;;;;;;;5001107;28;20583;-65
2022/05/10 04:47:46;;;;;;;34.08;12.55;;;;;;;;;;5000126;28;20095;-65
2022/05/10 04:50:12;;;;;;;29.50;11.65;;;;;;;;;;5001953;28;20434;-65
2022/05/10 04:52:40;;;;;;;34.10;11.98;;;;;;;;;;5001076;28;20867;-65
2022/05/10 04:55:09;;;;;;;37.00;12.25;;;;;;;;;;4998537;28;20156;-65
2022/05/10 04:57:38;;;;;;;32.15;11.00;;;;;;;;;;5000566;28;21184;-66
2022/05/10 05:00:07;;;;;;;33.00;10.15;;;;;;;;;;4999175;28;20045;-66
2022/05/10 05:02:35;;;;;;;29.40;9.90;;;;;;;;;;4999476;28;20029;-64
2022/05/10 05:05:01;;;;;;;20.70;8.57;;;;;;;;;;4999114;28;20036;-67
2022/05/10 05:07:26;;;;;;;19.45;8.63;;;;;;;;;;5000000;28;20108;-65
2022/05/10 05:09:51;;;;;;;20.42;8.35;;;;;;;;;;4997495;28;20136;-64
2022/05/10 05:12:17;;;;;;;19.88;8.20;;;;;;;;;;4994051;28;20042;-68
2022/05/10 05:14:42;;;;;;;20.13;8.02;;;;;;;;;;4997220;28;20040;-67
2022/05/10 05:17:10;;;;;;;23.58;8.27;;;;;;;;;;4999431;28;20856;-66
2022/05/10 05:19:40;;;;;;;23.55;9.40;;;;;;;;;;5000971;28;20076;-67
2022/05/10 05:22:05;;;;;;;32.47;11.68;;;;;;;;;;4998124;28;20869;-67
2022/05/10 05:24:30;;;;;;;30.75;11.48;;;;;;;;;;4997567;28;20140;-67
2022/05/10 05:26:56;;;;;;;32.10;11.88;;;;;;;;;;4996791;28;20036;-65
2022/05/10 05:29:21;;;;;;;39.15;11.45;;;;;;;;;;4997665;28;20044;-65
2022/05/10 05:31:47;;;;;;;32.90;11.90;;;;;;;;;;4998449;28;20036;-64
2022/05/10 05:34:13;;;;;;;35.28;11.90;;;;;;;;;;4998381;28;20038;-66
2022/05/10 05:36:38;;;;;;;36.85;12.82;;;;;;;;;;4997022;28;20041;-65
2022/05/10 05:39:03;;;;;;;33.20;11.60;;;;;;;;;;4998729;28;20026;-65
2022/05/10 05:41:28;;;;;;;33.08;11.52;;;;;;;;;;4998764;28;20059;-66
2022/05/10 05:43:54;;;;;;;36.75;12.23;;;;;;;;;;4996845;28;20561;-65
2022/05/10 05:46:19;;;;;;;31.40;10.75;;;;;;;;;;4998048;28;20620;-65
2022/05/10 05:48:46;;;;;;;33.33;11.20;;;;;;;;;;4999194;28;20041;-65
2022/05/10 05:51:14;;;;;;;38.80;12.73;;;;;;;;;;4997205;28;23286;-65
2022/05/10 05:53:39;;;;;;;43.80;12.15;;;;;;;;;;4998851;28;20094;-64
2022/05/10 05:56:08;;;;;;;45.65;12.38;;;;;;;;;;4996138;28;20037;-65
2022/05/10 05:58:39;;;;;;;;;;;;;;;;;;4999281;28;20226;-67
2022/05/10 06:01:11;;;;;;;39.13;12.70;;;;;;;;;;4998073;28;20639;-67
2022/05/10 06:03:37;;;;;;;36.30;12.63;;;;;;;;;;4998681;28;20858;-66
2022/05/10 06:06:05;;;;;;;35.35;12.82;;;;;;;;;;4996187;28;20148;-65
2022/05/10 06:08:31;;;;;;;29.30;10.02;;;;;;;;;;4995319;28;20887;-64
2022/05/10 06:10:57;;;;;;;28.88;10.45;;;;;;;;;;4996856;28;20041;-67
2022/05/10 06:13:25;;;;;;;29.58;9.73;;;;;;;;;;4995810;28;20045;-68
2022/05/10 06:15:50;;;;;;;33.80;11.38;;;;;;;;;;4996389;28;20067;-64
2022/05/10 06:18:16;;;;;;;30.42;11.15;;;;;;;;;;4999327;28;20033;-64
2022/05/10 06:20:41;;;;;;;23.77;9.57;;;;;;;;;;5005714;28;20056;-68
2022/05/10 06:23:06;;;;;;;31.48;10.05;;;;;;;;;;4996101;28;20034;-66
2022/05/10 06:25:34;;;;;;;38.70;12.52;;;;;;;;;;4996138;28;20075;-64
2022/05/10 06:27:59;;;;;;;30.88;11.38;;;;;;;;;;4997756;28;21159;-65
2022/05/10 06:30:27;;;;;;;31.02;12.07;;;;;;;;;;4998094;28;20928;-71
2022/05/10 06:32:55;;;;;;;30.90;11.45;;;;;;;;;;4996592;28;20037;-64
2022/05/10 06:35:22;;;;;;;38.15;13.60;;;;;;;;;;4996699;28;20041;-64
2022/05/10 06:40:34;;;;;;;33.63;11.93;;;;;;;;;;4993687;28;20283;-61
2022/05/10 06:43:02;;;;;;;36.67;11.88;;;;;;;;;;4996173;28;20516;-63
2022/05/10 06:45:28;;;;;;;26.85;10.35;;;;;;;;;;4992732;28;20048;-66
2022/05/10 06:47:53;;;;;;;31.88;11.25;;;;;;;;;;4996437;28;20533;-63
2022/05/10 06:50:20;;;;;;;30.98;11.35;;;;;;;;;;4993998;28;20561;-64
2022/05/10 06:52:46;;;;;;;26.13;9.93;;;;;;;;;;4996136;28;20329;-66
2022/05/10 06:55:12;;;;;;;27.85;10.60;;;;;;;;;;4995084;28;20246;-66
2022/05/10 06:57:37;;;;;;;29.73;10.75;;;;;;;;;;5000060;28;20033;-67
2022/05/10 07:00:06;;;;;;;24.02;9.50;;;;;;;;;;4999660;28;20301;-63
2022/05/10 07:02:32;;;;;;;24.08;9.43;;;;;;;;;;5011891;28;20045;-67
2022/05/10 07:04:57;;;;;;;25.88;10.60;;;;;;;;;;5012945;28;20084;-64
2022/05/10 07:07:22;;;;;;;31.00;12.30;;;;;;;;;;4997908;28;20040;-67
2022/05/10 07:09:48;;;;;;;29.27;10.90;;;;;;;;;;5000270;28;20044;-67
2022/05/10 07:12:14;;;;;;;25.48;9.65;;;;;;;;;;5000084;28;20067;-66
2022/05/10 07:14:45;;;;;;;23.65;8.95;;;;;;;;;;4999754;28;20430;-68
2022/05/10 07:17:10;;;;;;;17.75;8.32;;;;;;;;;;5013698;28;20822;-68
2022/05/10 07:19:35;;;;;;;20.02;8.45;;;;;;;;;;5000819;28;20040;-68
2022/05/10 07:22:01;;;;;;;27.38;9.90;;;;;;;;;;4994816;28;20074;-67
2022/05/10 07:24:26;;;;;;;23.60;8.88;;;;;;;;;;5012724;28;20134;-66
2022/05/10 07:26:51;;;;;;;39.03;9.55;;;;;;;;;;4998260;28;20033;-62
2022/05/10 07:29:19;;;;;;;22.02;8.02;;;;;;;;;;5000014;28;20041;-66
2022/05/10 07:31:45;;;;;;;21.40;10.27;;;;;;;;;;5000681;28;20060;-62
2022/05/10 07:34:10;;;;;;;19.48;7.35;;;;;;;;;;5002078;28;20196;-62
2022/05/10 07:36:36;;;;;;;17.83;6.85;;;;;;;;;;4999265;28;20589;-64
2022/05/10 07:39:05;;;;;;;23.63;7.00;;;;;;;;;;5000322;28;20126;-62
2022/05/10 07:41:30;;;;;;;16.15;7.07;;;;;;;;;;4998122;28;20954;-65
2022/05/10 07:43:56;;;;;;;21.35;9.05;;;;;;;;;;4998933;28;20037;-61
2022/05/10 07:46:24;;;;;;;16.92;6.43;;;;;;;;;;4998537;28;20055;-62
2022/05/10 07:48:50;;;;;;;16.35;6.05;;;;;;;;;;5001821;28;20041;-63
2022/05/10 07:51:16;;;;;;;16.73;6.22;;;;;;;;;;4994906;28;20120;-62
2022/05/10 07:53:42;;;;;;;20.63;6.60;;;;;;;;;;4992282;28;20484;-67
2022/05/10 07:56:07;;;;;;;26.13;6.70;;;;;;;;;;4998352;28;20036;-64
2022/05/10 07:58:34;;;;;;;14.27;5.90;;;;;;;;;;5000139;28;20127;-69
2022/05/10 08:01:00;;;;;;;15.50;6.55;;;;;;;;;;4997501;28;21374;-64
2022/05/10 08:03:26;;;;;;;18.38;6.18;;;;;;;;;;4999198;28;20072;-66
2022/05/10 08:05:54;;;;;;;18.23;6.03;;;;;;;;;;4995393;28;20497;-63
2022/05/10 08:08:20;;;;;;;11.25;5.38;;;;;;;;;;4992114;28;20134;-63
2022/05/10 08:10:46;;;;;;;12.15;5.32;;;;;;;;;;4996159;28;20058;-63
2022/05/10 08:13:13;;;;;;;14.10;5.50;;;;;;;;;;4994260;28;20490;-63
2022/05/10 08:15:40;;;;;;;11.50;5.00;;;;;;;;;;4995343;28;20465;-64
2022/05/10 08:18:06;;;;;;;14.55;5.90;;;;;;;;;;5011383;28;20363;-64
2022/05/10 08:20:31;;;;;;;13.02;5.20;;;;;;;;;;4993835;28;20171;-66
2022/05/10 08:22:56;;;;;;;15.90;4.95;;;;;;;;;;4994641;28;20083;-67
2022/05/10 08:25:21;;;;;;;19.52;5.18;;;;;;;;;;4991124;28;20029;-64
2022/05/10 08:27:47;;;;;;;22.77;5.57;;;;;;;;;;4983907;28;20061;-62
2022/05/10 08:30:12;;;;;;;15.90;5.43;;;;;;;;;;4993332;28;20044;-64
2022/05/10 08:32:39;;;;;;;14.15;5.22;;;;;;;;;;4995773;28;20033;-65
2022/05/10 08:35:05;;;;;;;16.40;6.00;;;;;;;;;;4995292;28;20048;-65
2022/05/10 08:37:30;;;;;;;11.73;5.32;;;;;;;;;;4994041;28;20421;-66
2022/05/10 08:39:58;;;;;;;18.65;5.30;;;;;;;;;;4988991;28;20061;-62
2022/05/10 08:42:28;;;;;;;20.70;6.38;;;;;;;;;;4992848;28;20564;-62
2022/05/10 08:44:58;;;;;;;23.20;6.65;;;;;;;;;;4992343;28;20056;-66
2022/05/10 08:47:23;;;;;;;20.95;6.85;;;;;;;;;;4992065;28;20037;-61
2022/05/10 08:49:48;;;;;;;20.85;6.50;;;;;;;;;;4997844;28;20819;-65
2022/05/10 08:52:17;;;;;;;20.70;6.43;;;;;;;;;;4993051;28;20484;-62
2022/05/10 08:54:43;;;;;;;23.02;6.60;;;;;;;;;;4993224;28;20057;-66
2022/05/10 08:57:14;;;;;;;19.65;7.70;;;;;;;;;;4995203;28;20029;-65
2022/05/10 08:59:39;;;;;;;22.67;7.18;;;;;;;;;;4997519;28;21048;-66
2022/05/10 09:02:12;;;;;;;20.17;6.68;;;;;;;;;;4996527;28;20043;-65
2022/05/10 09:04:43;;;;;;;21.58;6.43;;;;;;;;;;5008830;28;20573;-66
2022/05/10 09:07:35;;;;;;;21.38;6.88;;;;;;;;;;4995946;28;20176;-62
2022/05/10 09:10:04;;;;;;;13.85;6.28;;;;;;;;;;4992433;28;20041;-66
2022/05/10 09:12:34;;;;;;;14.90;6.78;;;;;;;;;;4996129;28;20037;-63
2022/05/10 09:15:02;;;;;;;17.88;6.45;;;;;;;;;;4995314;28;20044;-64
2022/05/10 09:17:29;;;;;;;21.60;7.25;;;;;;;;;;4995769;28;20136;-64
2022/05/10 09:19:55;;;;;;;20.63;7.65;;;;;;;;;;4994307;28;20105;-63
2022/05/10 09:22:30;;;;;;;17.95;7.03;;;;;;;;;;4990349;28;20162;-67
2022/05/10 09:24:58;;;;;;;19.40;7.35;;;;;;;;;;4995186;28;20048;-63
2022/05/10 09:27:32;;;;;;;14.70;7.25;;;;;;;;;;4994296;28;21028;-66
2022/05/10 09:29:58;;;;;;;15.35;7.20;;;;;;;;;;4992615;28;20041;-62
2022/05/10 09:35:13;;;;;;;23.73;7.47;;;;;;;;;;4991740;28;20037;-65
2022/05/10 09:37:47;;;;;;;18.83;7.85;;;;;;;;;;4992551;28;20786;-65
2022/05/10 09:40:33;;;;;;;19.88;8.02;;;;;;;;;;4994736;28;20041;-62
2022/05/10 09:43:14;;;;;;;23.30;8.25;;;;;;;;;;4994455;28;20067;-61
2022/05/10 09:45:39;;;;;;;22.00;8.57;;;;;;;;;;4993643;28;20991;-64
2022/05/10 09:48:08;;;;;;;20.50;8.07;;;;;;;;;;4993173;28;20033;-62
2022/05/10 09:50:34;;;;;;;24.38;8.18;;;;;;;;;;4992320;28;20049;-65
2022/05/10 09:53:07;;;;;;;22.90;8.65;;;;;;;;;;4994757;28;20064;-66
2022/05/10 09:55:33;;;;;;;26.27;9.52;;;;;;;;;;4993707;28;20207;-63
2022/05/10 09:58:10;;;;;;;16.02;8.93;;;;;;;;;;4994233;28;20098;-63
2022/05/10 10:00:40;;;;;;;20.13;8.05;;;;;;;;;;4992747;28;20053;-65
2022/05/10 10:03:06;;;;;;;20.25;8.68;;;;;;;;;;4992988;28;20044;-63
2022/05/10 10:05:32;;;;;;;20.83;8.48;;;;;;;;;;4973533;28;20076;-62
2022/05/10 10:07:58;;;;;;;19.42;8.77;;;;;;;;;;4989788;28;20044;-62
2022/05/10 10:10:37;;;;;;;16.98;8.88;;;;;;;;;;4996820;28;20136;-62
2022/05/10 10:13:21;;;;;;;14.88;8.13;;;;;;;;;;4997711;28;20839;-65
2022/05/10 10:15:46;;;;;;;16.00;7.80;;;;;;;;;;4998074;28;20037;-64
2022/05/10 10:18:32;;;;;;;19.23;8.77;;;;;;;;;;4992634;28;20163;-62
2022/05/10 10:20:58;;;;;;;18.45;8.77;;;;;;;;;;4995028;28;20041;-62
2022/05/10 10:23:23;;;;;;;18.30;8.43;;;;;;;;;;4998205;28;20033;-62
2022/05/10 10:25:50;;;;;;;28.02;8.35;;;;;;;;;;4996180;28;20063;-64
2022/05/10 10:28:15;;;;;;;20.85;8.73;;;;;;;;;;4994901;28;20045;-63
2022/05/10 10:31:01;;;;;;;17.58;7.57;;;;;;;;;;5009421;28;20032;-63
2022/05/10 10:33:27;;;;;;;15.35;7.20;;;;;;;;;;4995728;28;20033;-63
2022/05/10 10:36:03;;;;;;;19.90;7.53;;;;;;;;;;5001094;28;20148;-62
2022/05/10 10:38:45;;;;;;;22.17;7.30;;;;;;;;;;4999557;28;20042;-62
2022/05/10 10:41:13;;;;;;;28.80;7.53;;;;;;;;;;5000828;28;20132;-61
2022/05/10 10:43:58;;;;;;;22.00;6.68;;;;;;;;;;4999658;28;20087;-62
2022/05/10 10:46:43;;;;;;;22.58;7.38;;;;;;;;;;4999282;28;20807;-61
2022/05/10 10:49:13;;;;;;;23.40;7.60;;;;;;;;;;5001147;28;20072;-62
2022/05/10 10:51:39;;;;;;;24.55;7.78;;;;;;;;;;5000661;28;20048;-62
2022/05/10 10:54:07;;;;;;;24.90;7.00;;;;;;;;;;4998743;28;22385;-65
2022/05/10 10:56:33;;;;;;;21.90;6.20;;;;;;;;;;4999031;28;20037;-62
2022/05/10 10:59:10;;;;;;;19.70;5.90;;;;;;;;;;4997652;28;20044;-64
2022/05/10 11:01:39;;;;;;;17.20;5.43;;;;;;;;;;4998567;28;20155;-63
2022/05/10 11:04:23;;;;;;;15.48;4.90;;;;;;;;;;4996568;28;20580;-61
2022/05/10 11:06:50;;;;;;;14.60;5.10;;;;;;;;;;4996506;28;20034;-65
2022/05/10 11:09:21;;;;;;;18.98;5.63;;;;;;;;;;4994323;28;20084;-67
2022/05/10 11:11:49;;;;;;;12.98;4.40;;;;;;;;;;4991202;28;20037;-62
2022/05/10 11:14:21;;;;;;;19.73;5.05;;;;;;;;;;4990006;28;20140;-63
2022/05/10 11:16:52;;;;;;;14.18;4.55;;;;;;;;;;4992052;28;20029;-62
2022/05/10 11:19:26;;;;;;;14.75;4.05;;;;;;;;;;4995379;28;20030;-64
2022/05/10 11:22:00;;;;;;;13.82;4.13;;;;;;;;;;4994592;28;22203;-64
2022/05/10 11:24:36;;;;;;;20.15;4.05;;;;;;;;;;4993613;28;20049;-67
2022/05/10 11:27:16;;;;;;;13.48;3.80;;;;;;;;;;4988436;28;20045;-63
2022/05/10 11:29:50;;;;;;;21.65;5.00;;;;;;;;;;4990288;28;20120;-63
2022/05/10 11:32:34;;;;;;;14.88;3.50;;;;;;;;;;4992864;28;20971;-64
2022/05/10 11:35:05;;;;;;;16.02;3.88;;;;;;;;;;4992507;28;20119;-65
2022/05/10 11:37:35;;;;;;;18.38;3.80;;;;;;;;;;4992530;28;22236;-62
2022/05/10 11:40:33;;;;;;;16.40;3.70;;;;;;;;;;4991325;28;20121;-62
2022/05/10 11:43:01;;;;;;;15.75;3.55;;;;;;;;;;4948107;28;20041;-64
2022/05/10 11:45:45;;;;;;;15.13;3.33;;;;;;;;;;4994700;28;20121;-63
2022/05/10 11:48:29;;;;;;;12.82;3.97;;;;;;;;;;4990929;28;20152;-62
2022/05/10 11:53:41;;;;;;;14.10;3.78;;;;;;;;;;4989201;28;20568;-62
2022/05/10 11:56:10;;;;;;;12.10;3.67;;;;;;;;;;4990843;28;20033;-62
2022/05/10 11:58:37;;;;;;;16.27;3.95;;;;;;;;;;4988131;28;20562;-61
2022/05/10 12:01:04;;;;;;;8.60;3.67;;;;;;;;;;4989618;28;21183;-62
2022/05/10 12:03:35;;;;;;;16.10;4.00;;;;;;;;;;4983908;28;20041;-64
2022/05/10 12:06:21;;;;;;;14.75;4.45;;;;;;;;;;5004859;28;20098;-61
2022/05/10 12:08:50;;;;;;;13.93;4.50;;;;;;;;;;4993316;28;20119;-65
2022/05/10 12:11:27;;;;;;;15.00;4.78;;;;;;;;;;4994450;28;20045;-66
2022/05/10 12:22:09;;;;;;;14.55;4.93;;;;;;;;;;4994019;28;20041;-68
2022/05/10 12:24:44;;;;;;;17.20;5.20;;;;;;;;;;4993973;28;20564;-64
2022/05/10 12:27:12;;;;;;;12.65;4.80;;;;;;;;;;4989294;28;20037;-66
2022/05/10 12:29:38;;;;;;;12.73;4.75;;;;;;;;;;4994410;28;20029;-64
2022/05/10 12:32:21;;;;;;;11.05;4.97;;;;;;;;;;4989563;28;20172;-65
2022/05/10 12:34:57;;;;;;;11.23;4.72;;;;;;;;;;4992118;28;20033;-64
2022/05/10 12:37:28;;;;;;;15.43;5.18;;;;;;;;;;4986144;28;20071;-63
2022/05/10 12:40:08;;;;;;;12.88;4.97;;;;;;;;;;4986854;28;20993;-63
2022/05/10 12:42:38;;;;;;;12.13;4.35;;;;;;;;;;4991350;28;20041;-62
2022/05/10 12:45:22;;;;;;;13.88;5.07;;;;;;;;;;4987507;28;22332;-64
2022/05/10 12:48:06;;;;;;;16.30;4.90;;;;;;;;;;4991473;28;20041;-61
2022/05/10 12:50:38;;;;;;;14.30;5.40;;;;;;;;;;4991549;28;20995;-62
2022/05/10 12:53:16;;;;;;;14.50;4.82;;;;;;;;;;4991405;28;20033;-64
2022/05/10 12:55:42;;;;;;;11.40;3.92;;;;;;;;;;4992367;28;20826;-65
2022/05/10 12:58:18;;;;;;;12.75;4.15;;;;;;;;;;4987881;28;20033;-65
2022/05/10 13:00:50;;;;;;;13.07;4.50;;;;;;;;;;4991991;28;20057;-66
2022/05/10 13:03:20;;;;;;;;;;;;;;;;;;4989020;28;20064;-67
2022/05/10 13:05:54;;;;;;;17.50;4.45;;;;;;;;;;4985297;28;19913;-66
2022/05/10 13:08:29;;;;;;;14.02;4.13;;;;;;;;;;4988082;28;20037;-64
2022/05/10 13:10:54;;;;;;;15.55;4.18;;;;;;;;;;4988033;28;20033;-66
2022/05/10 13:13:22;;;;;;;12.93;4.10;;;;;;;;;;4988897;28;20037;-65
2022/05/10 13:15:50;;;;;;;17.73;4.47;;;;;;;;;;4989226;28;20057;-64
2022/05/10 13:18:20;;;;;;;13.27;4.30;;;;;;;;;;4966651;28;20033;-64
2022/05/10 13:20:49;;;;;;;13.80;3.85;;;;;;;;;;4993452;28;20090;-65
2022/05/10 13:23:14;;;;;;;14.40;3.80;;;;;;;;;;4992573;28;20044;-64
2022/05/10 13:25:41;;;;;;;12.95;3.45;;;;;;;;;;4996818;28;20844;-62
2022/05/10 13:28:10;;;;;;;13.70;3.63;;;;;;;;;;4986436;28;20160;-64
2022/05/10 13:30:36;;;;;;;12.98;3.50;;;;;;;;;;4987574;28;20434;-65
2022/05/10 13:33:02;;;;;;;14.40;3.28;;;;;;;;;;4983423;28;20051;-64
2022/05/10 13:35:30;;;;;;;12.25;2.88;;;;;;;;;;4987964;28;21835;-65
2022/05/10 13:37:56;;;;;;;12.85;2.97;;;;;;;;;;4987604;28;20454;-66
2022/05/10 13:40:42;;;;;;;17.80;3.47;;;;;;;;;;4989751;28;21708;-66
2022/05/10 13:43:10;;;;;;;14.27;3.70;;;;;;;;;;4988329;28;20171;-64
2022/05/10 13:45:39;;;;;;;18.60;3.22;;;;;;;;;;4985862;28;20461;-64
2022/05/10 13:48:12;;;;;;;14.68;3.50;;;;;;;;;;4987937;28;21395;-64
2022/05/10 13:50:41;;;;;;;21.05;3.50;;;;;;;;;;4986934;28;20836;-66
2022/05/10 13:53:08;;;;;;;17.77;3.85;;;;;;;;;;4988656;28;20498;-66
2022/05/10 13:55:36;;;;;;;25.25;3.47;;;;;;;;;;4988333;28;20731;-64
2022/05/10 13:58:05;;;;;;;13.82;3.17;;;;;;;;;;4987739;28;20144;-67
2022/05/10 14:00:32;;;;;;;16.23;3.50;;;;;;;;;;5002414;28;22189;-64
2022/05/10 14:02:58;;;;;;;15.57;3.25;;;;;;;;;;4989726;28;20536;-65
2022/05/10 14:05:25;;;;;;;18.90;3.78;;;;;;;;;;4988787;28;20278;-64
2022/05/10 14:07:56;;;;;;;20.08;3.78;;;;;;;;;;4989297;28;20450;-65
2022/05/10 14:10:22;;;;;;;16.45;3.20;;;;;;;;;;4987218;28;20040;-65
2022/05/10 14:12:51;;;;;;;19.23;3.90;;;;;;;;;;4989579;28;20040;-65
2022/05/10 14:15:27;;;;;;;10.25;3.40;;;;;;;;;;4988789;28;20025;-63
2022/05/10 14:18:12;;;;;;;17.17;3.97;;;;;;;;;;4989432;28;20073;-65
2022/05/10 14:20:40;;;;;;;16.42;3.80;;;;;;;;;;4982441;28;20079;-63
2022/05/10 14:23:07;;;;;;;19.83;4.13;;;;;;;;;;4982738;28;20118;-65
2022/05/10 14:25:35;;;;;;;17.42;4.63;;;;;;;;;;4987471;28;20067;-66
2022/05/10 14:28:17;;;;;;;17.10;4.20;;;;;;;;;;4986193;28;21088;-65
2022/05/10 14:30:45;;;;;;;13.27;4.13;;;;;;;;;;4989842;28;20040;-64
2022/05/10 14:33:15;;;;;;;18.88;4.47;;;;;;;;;;4991035;28;20090;-65
2022/05/10 14:35:41;;;;;;;13.85;4.55;;;;;;;;;;4992982;28;20077;-65
2022/05/10 14:38:11;;;;;;;13.50;4.25;;;;;;;;;;4993604;28;20996;-65
2022/05/10 14:40:40;;;;;;;13.02;4.03;;;;;;;;;;4990529;28;20045;-65
2022/05/10 14:43:11;;;;;;;15.55;4.80;;;;;;;;;;5000377;28;20041;-66
2022/05/10 14:45:44;;;;;;;20.13;4.63;;;;;;;;;;4988329;28;20033;-64
2022/05/10 14:48:20;;;;;;;16.92;4.95;;;;;;;;;;4987934;28;20179;-64
2022/05/10 14:50:51;;;;;;;21.00;5.38;;;;;;;;;;4988220;28;20045;-63
2022/05/10 14:53:18;;;;;;;16.77;4.97;;;;;;;;;;4986961;28;20072;-65
2022/05/10 14:55:46;;;;;;;17.73;5.30;;;;;;;;;;4990087;28;20638;-65
2022/05/10 14:58:12;;;;;;;18.77;5.22;;;;;;;;;;4993351;28;20029;-65
2022/05/10 15:00:40;;;;;;;20.45;5.18;;;;;;;;;;4991513;28;20047;-64
2022/05/10 15:03:20;;;;;;;22.35;5.97;;;;;;;;;;4991058;28;20844;-66
2022/05/10 15:05:47;;;;;;;21.63;5.43;;;;;;;;;;4998529;28;20045;-65
2022/05/10 15:08:13;;;;;;;19.25;6.03;;;;;;;;;;4994432;28;20033;-64
2022/05/10 15:10:39;;;;;;;22.02;6.47;;;;;;;;;;4997116;28;20056;-65
2022/05/10 15:13:07;;;;;;;23.92;6.68;;;;;;;;;;4997377;28;22550;-66
2022/05/10 15:15:55;;;;;;;22.63;7.25;;;;;;;;;;4996587;28;20110;-65
2022/05/10 15:21:11;;;;;;;23.75;7.50;;;;;;;;;;5000233;28;20048;-65
2022/05/10 15:23:39;;;;;;;24.80;7.32;;;;;;;;;;5000885;28;20134;-66
2022/05/10 15:26:05;;;;;;;21.70;8.15;;;;;;;;;;4998427;28;20115;-64
2022/05/10 15:28:30;;;;;;;25.35;7.72;;;;;;;;;;5000010;28;20151;-64
2022/05/10 15:30:56;;;;;;;24.35;8.02;;;;;;;;;;4998748;28;20041;-65